Time;durP1;ratioP1;P1;durP2;ratioP2;P2;SDS_P1;SDS_P2;PMS_P1;PMS_P2;Temp;Humidity;BMP_temperature;BMP_pressure;BME280_temperature;BME280_humidity;BME280_pressure;Samples;Min_cycle;Max_cycle;Signal;HPM_P1;HPM_P2
2022/01/18 00:01:50;;;;;;;25.17;13.50;;;;;;;2.69;58.22;94126.28;2074681;69;20152;-72
2022/01/18 00:04:16;;;;;;;19.52;10.57;;;;;;;2.68;57.49;94124.78;2074527;69;20151;-71
2022/01/18 00:06:46;;;;;;;19.23;9.88;;;;;;;2.66;57.55;94119.75;2074910;69;20168;-72
2022/01/18 00:09:12;;;;;;;21.05;11.88;;;;;;;2.60;57.81;94115.53;2074302;69;20140;-73
2022/01/18 00:12:00;;;;;;;25.48;13.68;;;;;;;2.29;59.20;94109.31;2074136;69;20132;-71
2022/01/18 00:14:38;;;;;;;23.63;13.40;;;;;;;2.33;59.56;94109.03;2074631;69;20554;-71
2022/01/18 00:19:33;;;;;;;23.15;11.68;;;;;;;2.30;59.29;94105.28;2074693;69;20142;-72
2022/01/18 00:22:11;;;;;;;21.33;11.02;;;;;;;2.33;59.23;94107.00;2074467;69;20183;-73
2022/01/18 00:24:40;;;;;;;20.50;10.82;;;;;;;2.02;59.76;94120.25;2075142;69;20245;-72
2022/01/18 00:27:13;;;;;;;22.80;11.80;;;;;;;2.04;59.97;94120.47;2075415;69;20182;-72
2022/01/18 00:29:50;;;;;;;23.52;11.70;;;;;;;2.01;60.76;94124.25;2071519;69;20147;-73
2022/01/18 00:32:49;;;;;;;23.40;12.05;;;;;;;2.08;60.43;94124.97;2074764;69;20172;-71
2022/01/18 00:35:04;;;;;;;20.48;10.15;;;;;;;1.96;60.69;94130.63;2074326;69;20234;-78
2022/01/18 00:37:39;;;;;;;11.50;6.82;;;;;;;2.09;59.69;94137.59;2074656;69;20654;-74
2022/01/18 00:40:06;;;;;;;15.40;7.78;;;;;;;2.10;59.63;94145.41;2074799;69;20144;-70
2022/01/18 00:42:33;;;;;;;18.23;9.65;;;;;;;1.84;60.77;94148.69;2074740;69;20177;-74
2022/01/18 00:44:59;;;;;;;17.90;10.18;;;;;;;1.92;60.55;94152.38;2074596;69;20136;-71
2022/01/18 00:47:25;;;;;;;16.70;9.73;;;;;;;1.90;60.79;94162.53;2074690;69;20148;-71
2022/01/18 00:50:00;;;;;;;15.20;8.95;;;;;;;2.01;60.40;94159.63;2074371;69;20238;-72
2022/01/18 00:52:28;;;;;;;19.15;9.55;;;;;;;1.84;60.29;94168.13;2070975;69;20147;-71
2022/01/18 00:54:54;;;;;;;16.20;9.05;;;;;;;1.88;60.66;94170.59;2074371;69;20246;-70
2022/01/18 00:57:20;;;;;;;14.10;8.50;;;;;;;1.91;60.83;94169.56;2075007;69;20156;-71
2022/01/18 00:59:47;;;;;;;15.82;8.88;;;;;;;1.90;60.94;94181.97;2074918;69;20642;-70
2022/01/18 01:02:18;;;;;;;13.50;6.78;;;;;;;1.96;60.20;94180.63;2075012;69;20175;-72
2022/01/18 01:04:48;;;;;;;9.27;5.70;;;;;;;2.06;59.50;94188.63;2074715;69;20148;-78
2022/01/18 01:07:20;;;;;;;11.27;5.97;;;;;;;2.06;59.28;94188.63;2074920;69;20209;-71
2022/01/18 01:09:53;;;;;;;9.68;5.35;;;;;;;1.99;59.62;94190.72;2074945;69;20139;-72
2022/01/18 01:12:23;;;;;;;9.98;5.50;;;;;;;1.94;59.90;94188.75;2071451;69;20126;-72
2022/01/18 01:14:52;;;;;;;8.85;4.90;;;;;;;1.95;59.52;94181.16;2074837;69;20144;-73
2022/01/18 01:32:11;;;;;;;7.05;3.88;;;;;;;1.93;58.78;94186.50;2074259;69;20736;-71
2022/01/18 01:36:10;;;;;;;2.55;1.73;;;;;;;1.84;58.71;94200.72;2071163;69;20602;-72
2022/01/18 01:46:38;;;;;;;9.27;5.10;;;;;;;1.49;60.54;94211.31;2074544;69;20166;-71
2022/01/18 01:49:09;;;;;;;8.73;5.28;;;;;;;1.40;61.02;94217.16;2074644;69;20235;-70
2022/01/18 01:51:35;;;;;;;8.13;5.10;;;;;;;1.47;60.31;94221.44;2074517;69;20163;-70
2022/01/18 01:54:06;;;;;;;8.07;4.43;;;;;;;1.57;60.47;94222.63;2074744;69;20156;-71
2022/01/18 01:56:33;;;;;;;8.30;4.43;;;;;;;1.51;59.90;94208.00;2074754;69;20194;-71
2022/01/18 01:59:00;;;;;;;8.48;4.07;;;;;;;1.36;60.53;94213.16;2071156;69;20184;-73
2022/01/18 02:01:26;;;;;;;7.38;3.10;;;;;;;1.29;60.66;94211.69;2074744;69;20180;-72
2022/01/18 02:03:53;;;;;;;5.47;2.90;;;;;;;1.37;60.58;94217.44;2074813;69;20295;-80
2022/01/18 02:06:18;;;;;;;5.28;2.75;;;;;;;1.44;60.49;94208.56;2074836;69;20158;-72
2022/01/18 02:08:44;;;;;;;7.13;2.40;;;;;;;1.38;59.83;94213.41;2071411;69;20148;-72
2022/01/18 02:11:11;;;;;;;3.53;2.17;;;;;;;1.39;59.52;94210.13;2074990;69;20618;-69
2022/01/18 02:13:37;;;;;;;7.13;2.53;;;;;;;1.36;59.63;94210.38;2075040;69;20231;-69
2022/01/18 02:24:06;;;;;;;2.47;1.58;;;;;;;1.24;59.40;94218.78;2075233;69;20148;-69
2022/01/18 02:26:33;;;;;;;3.75;1.30;;;;;;;1.29;59.52;94208.19;2075224;69;20167;-70
2022/01/18 02:29:00;;;;;;;2.05;1.30;;;;;;;1.23;59.06;94203.38;2074891;69;20231;-70
2022/01/18 02:31:27;;;;;;;1.92;1.10;;;;;;;1.20;59.09;94204.44;2074872;69;20171;-72
2022/01/18 02:33:53;;;;;;;2.60;1.70;;;;;;;0.79;61.51;94196.06;2074723;69;20209;-70
2022/01/18 02:36:18;;;;;;;2.42;1.58;;;;;;;0.86;60.61;94203.09;2074813;69;20176;-71
2022/01/18 02:38:44;;;;;;;5.82;2.22;;;;;;;0.90;60.27;94203.59;2074534;69;20235;-71
2022/01/18 02:41:09;;;;;;;2.97;2.03;;;;;;;0.84;60.17;94198.06;2074210;69;20154;-70
2022/01/18 02:43:47;;;;;;;2.85;1.50;;;;;;;0.93;59.84;94197.78;2074502;69;20167;-70
2022/01/18 02:46:13;;;;;;;1.85;1.40;;;;;;;0.98;59.73;94199.75;2074844;69;20140;-70
2022/01/18 02:48:39;;;;;;;4.38;1.83;;;;;;;0.83;60.45;94198.59;2074806;69;20156;-70
2022/01/18 02:51:05;;;;;;;2.95;1.52;;;;;;;0.87;60.01;94188.75;2074677;69;20182;-70
2022/01/18 02:53:31;;;;;;;3.42;1.73;;;;;;;0.89;59.51;94191.00;2075092;69;20136;-72
2022/01/18 02:55:58;;;;;;;2.08;1.50;;;;;;;0.88;60.10;94193.00;2074694;69;20609;-70
2022/01/18 02:58:34;;;;;;;1.90;1.30;;;;;;;0.87;60.63;94196.28;2074848;69;20161;-70
2022/01/18 03:03:36;;;;;;;2.78;1.00;;;;;;;1.16;59.58;94197.66;2074781;69;20147;-70
2022/01/18 03:06:07;;;;;;;2.08;1.10;;;;;;;1.20;59.42;94200.91;2074696;69;20176;-74
2022/01/18 03:08:33;;;;;;;2.70;1.40;;;;;;;0.82;59.35;94203.34;2074667;69;20167;-73
2022/01/18 03:11:00;;;;;;;3.00;1.38;;;;;;;1.03;59.02;94201.00;2074629;69;20467;-71
2022/01/18 03:13:26;;;;;;;2.70;1.48;;;;;;;1.06;58.80;94208.31;2074964;69;20136;-71
2022/01/18 03:15:52;;;;;;;2.92;1.40;;;;;;;0.91;59.14;94214.16;2074820;69;20179;-72
2022/01/18 03:18:18;;;;;;;2.47;1.60;;;;;;;1.03;58.26;94217.63;2074843;69;20164;-72
2022/01/18 03:20:43;;;;;;;2.35;1.42;;;;;;;0.85;59.05;94224.53;2074593;69;20160;-73
2022/01/18 03:23:14;;;;;;;2.00;1.45;;;;;;;0.74;59.06;94221.81;2075029;69;20498;-70
2022/01/18 03:25:52;;;;;;;3.88;1.65;;;;;;;0.74;58.15;94232.91;2075101;69;20146;-71
2022/01/18 03:28:18;;;;;;;2.58;1.27;;;;;;;0.82;58.39;94224.78;2075132;69;20182;-70
2022/01/18 03:30:53;;;;;;;3.25;1.40;;;;;;;0.76;58.80;94227.59;2071798;69;20155;-70
2022/01/18 03:33:22;;;;;;;2.58;1.50;;;;;;;0.77;58.54;94231.84;2074808;69;20144;-71
2022/01/18 03:35:50;;;;;;;2.47;1.70;;;;;;;0.74;59.69;94235.66;2071860;69;20306;-72
2022/01/18 03:38:17;;;;;;;5.40;1.67;;;;;;;0.70;59.13;94229.63;2075247;69;20689;-71
2022/01/18 03:40:42;;;;;;;2.38;1.45;;;;;;;0.70;59.25;94229.63;2075214;69;20170;-72
2022/01/18 03:43:11;;;;;;;3.10;1.30;;;;;;;0.73;59.83;94234.13;2075231;69;20147;-72
2022/01/18 03:45:42;;;;;;;2.70;1.20;;;;;;;0.59;60.17;94232.44;2075247;69;20148;-74
2022/01/18 03:48:14;;;;;;;2.55;1.30;;;;;;;0.73;59.85;94232.16;2075223;69;20144;-73
2022/01/18 03:50:40;;;;;;;1.65;1.20;;;;;;;0.75;59.77;94231.63;2075233;69;20176;-77
2022/01/18 03:53:08;;;;;;;1.33;1.10;;;;;;;0.94;58.86;94223.47;2075374;69;20151;-74
2022/01/18 03:55:34;;;;;;;2.00;0.90;;;;;;;0.80;60.35;94228.06;2075148;69;20159;-75
2022/01/18 03:57:59;;;;;;;1.50;1.10;;;;;;;0.89;58.99;94230.56;2075297;69;20607;-76
2022/01/18 04:00:27;;;;;;;2.17;1.10;;;;;;;0.89;58.75;94227.78;2075221;69;20603;-74
2022/01/18 04:02:54;;;;;;;1.77;1.10;;;;;;;0.94;58.47;94221.47;2075180;69;20167;-72
2022/01/18 04:05:20;;;;;;;1.55;1.20;;;;;;;0.91;58.42;94222.47;2075037;69;20147;-71
2022/01/18 04:07:46;;;;;;;2.33;1.27;;;;;;;0.93;58.63;94222.72;2075166;69;20148;-72
2022/01/18 04:10:13;;;;;;;1.52;1.20;;;;;;;0.90;58.36;94218.19;2075131;69;20235;-71
2022/01/18 04:12:39;;;;;;;1.85;1.20;;;;;;;0.97;58.41;94208.59;2075152;69;20251;-71
2022/01/18 04:15:08;;;;;;;1.98;1.35;;;;;;;0.90;58.58;94209.13;2075271;69;20195;-72
2022/01/18 04:18:09;;;;;;;1.58;1.08;;;;;;;1.03;58.16;94209.31;2075145;69;20155;-72
2022/01/18 04:28:29;;;;;;;1.95;1.00;;;;;;;1.07;57.69;94204.25;2075139;69;20144;-71
2022/01/18 04:30:54;;;;;;;1.48;0.90;;;;;;;1.09;57.96;94206.50;2075266;69;20238;-72
2022/01/18 04:33:20;;;;;;;1.23;0.82;;;;;;;0.92;58.61;94210.13;2075147;69;20275;-72
2022/01/18 04:35:46;;;;;;;1.30;1.02;;;;;;;0.99;58.01;94215.13;2071636;69;20144;-73
2022/01/18 04:38:12;;;;;;;2.25;1.35;;;;;;;0.87;58.45;94226.78;2075134;69;20171;-73
2022/01/18 04:40:41;;;;;;;3.75;2.22;;;;;;;0.90;58.44;94234.84;2075089;69;20655;-73
2022/01/18 04:48:35;;;;;;;3.70;2.00;;;;;;;0.76;59.03;94233.88;2075332;69;20612;-74
2022/01/18 04:51:07;;;;;;;2.67;1.70;;;;;;;0.69;58.38;94234.44;2074970;69;20124;-74
2022/01/18 04:53:36;;;;;;;2.67;1.60;;;;;;;0.80;58.32;94238.41;2075087;69;20176;-72
2022/01/18 04:56:07;;;;;;;2.22;1.80;;;;;;;0.80;57.74;94249.50;2075058;69;20249;-71
2022/01/18 04:58:34;;;;;;;3.03;2.03;;;;;;;0.64;58.67;94249.06;2075216;69;20196;-75
2022/01/18 05:01:02;;;;;;;4.72;2.22;;;;;;;0.60;58.24;94245.78;2075166;69;20176;-72
2022/01/18 05:03:29;;;;;;;3.05;2.00;;;;;;;0.58;58.49;94255.88;2075100;69;20143;-71
2022/01/18 05:05:57;;;;;;;4.88;2.53;;;;;;;0.48;58.85;94249.84;2074930;69;20151;-72
2022/01/18 05:08:24;;;;;;;4.20;2.95;;;;;;;0.46;58.96;94253.16;2075093;69;20360;-72
2022/01/18 05:10:57;;;;;;;4.20;2.85;;;;;;;0.39;59.45;94261.22;2075009;69;20152;-72
2022/01/18 05:13:47;;;;;;;5.72;2.90;;;;;;;0.28;59.40;94259.22;2075046;69;20163;-71
2022/01/18 05:21:26;;;;;;;4.93;2.45;;;;;;;0.38;58.37;94257.69;2074912;69;20231;-71
2022/01/18 05:23:52;;;;;;;4.18;2.60;;;;;;;0.38;58.16;94265.25;2075115;69;20148;-71
2022/01/18 05:26:18;;;;;;;4.93;2.40;;;;;;;0.44;58.20;94271.53;2075227;69;20155;-71
2022/01/18 05:28:44;;;;;;;3.67;1.92;;;;;;;0.45;58.17;94265.47;2074896;69;20594;-71
2022/01/18 05:31:10;;;;;;;8.02;4.00;;;;;;;0.03;59.41;94274.09;2071596;69;20148;-71
2022/01/18 05:33:36;;;;;;;34.58;14.68;;;;;;;0.03;59.50;94271.31;2071567;69;20132;-71
2022/01/18 05:36:01;;;;;;;16.67;8.50;;;;;;;-0.11;60.07;94281.41;2068686;69;20227;-72
2022/01/18 05:38:29;;;;;;;29.67;13.43;;;;;;;-0.11;59.79;94293.22;2075063;69;20136;-72
2022/01/18 05:40:55;;;;;;;27.45;13.43;;;;;;;-0.20;60.00;94290.69;2072003;69;20128;-72
2022/01/18 05:43:20;;;;;;;22.48;10.95;;;;;;;-0.08;59.77;94294.25;2075433;69;20151;-75
2022/01/18 05:45:46;;;;;;;28.05;11.27;;;;;;;-0.27;60.27;94293.97;2075456;69;20139;-72
2022/01/18 05:48:12;;;;;;;26.02;12.05;;;;;;;-0.50;61.24;94298.72;2075544;69;20171;-72
2022/01/18 05:50:37;;;;;;;35.38;17.20;;;;;;;-0.18;60.36;94304.81;2071977;69;20139;-72
2022/01/18 05:53:03;;;;;;;41.40;20.70;;;;;;;-0.07;59.93;94304.06;2075449;69;20227;-72
2022/01/18 05:55:28;;;;;;;36.20;17.23;;;;;;;-0.40;61.41;94300.00;2075413;69;20534;-72
2022/01/18 05:57:54;;;;;;;35.95;17.40;;;;;;;-0.35;61.23;94295.72;2075494;69;20205;-72
2022/01/18 06:00:23;;;;;;;32.08;15.27;;;;;;;-0.19;60.38;94297.75;2075553;69;20213;-72
2022/01/18 06:08:23;;;;;;;25.55;12.45;;;;;;;-0.21;60.11;94299.50;2064456;69;20207;-70
2022/01/18 06:10:51;;;;;;;22.35;11.45;;;;;;;-0.19;59.52;94294.97;2073103;69;20597;-70
2022/01/18 06:13:18;;;;;;;27.58;12.82;;;;;;;-0.21;59.72;94296.75;2075424;69;20218;-71
2022/01/18 06:15:44;;;;;;;17.50;8.52;;;;;;;-0.30;60.37;94292.19;2075383;69;20606;-72
2022/01/18 06:18:10;;;;;;;17.38;9.30;;;;;;;-0.27;60.91;94296.75;2075505;69;20147;-72
2022/01/18 06:20:36;;;;;;;18.70;10.30;;;;;;;-0.37;61.44;94290.66;2075286;69;20594;-75
2022/01/18 06:23:02;;;;;;;17.90;9.80;;;;;;;-0.24;60.64;94298.50;2075385;69;20146;-71
2022/01/18 06:25:28;;;;;;;18.08;10.60;;;;;;;-0.32;60.83;94286.41;2075424;69;20622;-71
2022/01/18 06:27:54;;;;;;;16.98;9.27;;;;;;;-0.37;61.14;94298.22;2075417;69;20285;-71
2022/01/18 06:30:20;;;;;;;16.45;9.18;;;;;;;-0.42;61.00;94305.25;2075324;69;20148;-71
2022/01/18 06:32:46;;;;;;;18.95;9.50;;;;;;;-0.57;60.94;94308.25;2075324;69;20181;-71
2022/01/18 06:35:15;;;;;;;19.75;11.65;;;;;;;-0.68;61.67;94304.72;2075298;69;20176;-71
2022/01/18 06:37:41;;;;;;;19.38;10.80;;;;;;;-0.61;60.84;94304.22;2075389;69;20499;-72
2022/01/18 06:40:08;;;;;;;14.77;8.82;;;;;;;-0.48;61.30;94306.50;2075323;69;20209;-71
2022/01/18 06:42:34;;;;;;;16.65;9.02;;;;;;;-0.41;61.36;94304.03;2075466;69;20139;-73
2022/01/18 06:45:00;;;;;;;16.83;9.02;;;;;;;-0.43;60.72;94308.53;2075515;69;20163;-72
2022/01/18 06:47:25;;;;;;;27.00;12.45;;;;;;;-0.50;60.81;94307.03;2075349;69;20156;-76
2022/01/18 06:49:51;;;;;;;25.27;11.27;;;;;;;-0.70;60.88;94316.25;2075284;69;20585;-73
2022/01/18 06:52:17;;;;;;;23.05;11.80;;;;;;;-0.80;60.97;94315.72;2075232;69;20197;-75
2022/01/18 06:54:42;;;;;;;19.00;9.88;;;;;;;-0.69;60.83;94315.00;2075315;69;20159;-73
2022/01/18 06:57:08;;;;;;;14.88;7.57;;;;;;;-0.58;60.85;94317.06;2075281;69;20243;-72
2022/01/18 06:59:34;;;;;;;49.92;18.98;;;;;;;-1.12;62.38;94317.88;2075393;69;20518;-73
2022/01/18 07:02:00;;;;;;;44.30;17.50;;;;;;;-0.83;61.69;94316.72;2075274;69;20152;-74
2022/01/18 07:04:26;;;;;;;30.23;12.60;;;;;;;-0.98;62.14;94318.94;2075308;69;20491;-77
2022/01/18 07:06:52;;;;;;;27.52;11.48;;;;;;;-0.90;61.59;94322.00;2075140;69;20676;-73
2022/01/18 07:09:23;;;;;;;27.80;11.50;;;;;;;-0.81;61.55;94311.47;2075271;69;20167;-74
2022/01/18 07:11:56;;;;;;;30.95;12.05;;;;;;;-0.71;61.56;94322.28;2075314;69;20140;-72
2022/01/18 07:14:23;;;;;;;26.52;10.48;;;;;;;-0.71;61.20;94319.53;2075324;69;20176;-72
2022/01/18 07:16:49;;;;;;;26.40;10.70;;;;;;;-0.74;62.10;94326.06;2075389;69;20182;-72
2022/01/18 07:19:15;;;;;;;16.58;8.02;;;;;;;-0.66;61.46;94318.78;2075258;69;20142;-72
2022/01/18 07:21:41;;;;;;;31.67;12.25;;;;;;;-0.84;61.66;94333.81;2075142;69;20179;-72
2022/01/18 07:24:17;;;;;;;34.75;14.25;;;;;;;-1.04;62.34;94323.69;2071879;69;20160;-73
2022/01/18 07:26:43;;;;;;;39.20;15.85;;;;;;;-0.92;61.99;94322.47;2075483;69;20245;-74
2022/01/18 07:29:09;;;;;;;57.28;23.92;;;;;;;-0.92;61.71;94328.00;2075166;69;20515;-72
2022/01/18 07:31:34;;;;;;;62.08;26.42;;;;;;;-0.84;61.89;94329.03;2075273;69;20205;-80
2022/01/18 07:34:00;;;;;;;43.72;18.15;;;;;;;-0.93;61.80;94325.72;2075280;69;20207;-71
2022/01/18 07:36:26;;;;;;;46.50;19.88;;;;;;;-0.96;62.78;94333.03;2075085;69;20159;-72
2022/01/18 07:38:51;;;;;;;47.45;20.92;;;;;;;-0.83;61.94;94329.78;2075132;69;20205;-71
2022/01/18 07:41:17;;;;;;;43.67;21.55;;;;;;;-0.78;60.96;94324.31;2075310;69;20551;-71
2022/01/18 07:43:43;;;;;;;41.72;19.98;;;;;;;-0.73;61.32;94336.63;2075296;69;20287;-71
2022/01/18 07:46:09;;;;;;;46.25;21.25;;;;;;;-0.85;61.81;94340.59;2075251;69;20147;-73
2022/01/18 07:48:34;;;;;;;45.08;20.73;;;;;;;-0.94;62.89;94341.56;2075517;69;20148;-71
2022/01/18 07:51:00;;;;;;;41.88;20.48;;;;;;;-0.85;62.08;94335.06;2075017;69;20147;-69
2022/01/18 07:53:26;;;;;;;39.90;19.98;;;;;;;-0.91;63.04;94339.84;2075143;69;20144;-73
2022/01/18 07:55:52;;;;;;;42.10;20.23;;;;;;;-0.88;62.58;94344.34;2075096;69;20148;-75
2022/01/18 07:58:18;;;;;;;43.42;21.08;;;;;;;-1.10;63.13;94345.78;2075259;69;20154;-70
2022/01/18 08:00:45;;;;;;;43.72;20.98;;;;;;;-1.04;63.51;94343.03;2075101;69;20171;-74
2022/01/18 08:03:11;;;;;;;39.88;19.70;;;;;;;-0.96;62.97;94343.31;2075050;69;20151;-75
2022/01/18 08:05:37;;;;;;;36.20;17.73;;;;;;;-0.89;63.56;94337.31;2074977;69;20252;-70
2022/01/18 08:08:04;;;;;;;34.35;17.27;;;;;;;-0.87;62.89;94351.38;2075082;69;20175;-71
2022/01/18 08:10:30;;;;;;;35.53;18.33;;;;;;;-1.03;63.29;94344.53;2075105;69;20148;-73
2022/01/18 08:13:02;;;;;;;42.97;21.33;;;;;;;-0.99;62.99;94347.84;2075284;69;20480;-71
2022/01/18 08:15:39;;;;;;;51.28;22.80;;;;;;;-1.07;63.08;94349.56;2075175;69;20602;-71
2022/01/18 08:18:15;;;;;;;41.10;20.42;;;;;;;-1.04;63.54;94351.34;2075186;69;20205;-70
2022/01/18 08:20:41;;;;;;;39.20;19.10;;;;;;;-0.94;62.89;94354.66;2075054;69;20167;-72
2022/01/18 08:23:07;;;;;;;34.78;17.83;;;;;;;-0.84;63.24;94350.41;2071773;69;20649;-70
2022/01/18 08:25:34;;;;;;;31.77;17.48;;;;;;;-0.66;62.39;94361.03;2075186;69;20186;-70
2022/01/18 08:28:02;;;;;;;25.05;12.77;;;;;;;-0.89;63.69;94368.50;2075342;69;20144;-70
2022/01/18 08:30:27;;;;;;;31.48;15.43;;;;;;;-0.78;62.64;94359.47;2071760;69;20156;-70
2022/01/18 08:32:55;;;;;;;27.63;15.85;;;;;;;-0.93;63.60;94364.44;2075157;69;20221;-71
2022/01/18 08:35:23;;;;;;;28.45;15.57;;;;;;;-0.79;62.80;94361.47;2075027;69;20228;-73
2022/01/18 08:37:49;;;;;;;44.47;22.88;;;;;;;-1.05;63.46;94363.66;2075115;69;20227;-71
2022/01/18 08:40:16;;;;;;;59.50;28.85;;;;;;;-1.35;64.59;94368.75;2075081;69;20240;-71
2022/01/18 08:42:43;;;;;;;57.00;28.92;;;;;;;-1.07;64.13;94366.88;2075099;69;20681;-72
2022/01/18 08:45:09;;;;;;;60.83;28.73;;;;;;;-0.97;63.71;94364.66;2068910;69;20208;-77
2022/01/18 08:47:35;;;;;;;58.53;28.98;;;;;;;-0.44;65.04;94365.13;2075060;69;20148;-72
2022/01/18 08:50:01;;;;;;;61.70;34.33;;;;;;;-0.12;65.62;94363.69;2074940;69;20178;-73
2022/01/18 08:52:27;;;;;;;55.22;29.45;;;;;;;0.49;63.67;94364.97;2075127;69;20221;-72
2022/01/18 08:54:52;;;;;;;30.88;14.88;;;;;;;0.97;64.16;94361.13;2075089;69;20172;-70
2022/01/18 08:57:18;;;;;;;37.78;21.27;;;;;;;1.18;62.28;94361.56;2075026;69;20166;-70
2022/01/18 08:59:44;;;;;;;67.68;36.35;;;;;;;1.06;61.48;94355.31;2075122;69;20152;-70
2022/01/18 09:02:11;;;;;;;69.15;34.63;;;;;;;1.41;61.70;94349.13;2075003;69;20237;-70
2022/01/18 09:04:37;;;;;;;54.85;30.55;;;;;;;1.87;60.34;94353.16;2075082;69;20676;-70
2022/01/18 09:07:07;;;;;;;41.70;24.35;;;;;;;1.99;60.67;94356.63;2075172;69;20292;-73
2022/01/18 09:09:34;;;;;;;31.02;17.63;;;;;;;2.23;59.00;94362.28;2075058;69;20152;-77
2022/01/18 09:12:00;;;;;;;20.48;10.50;;;;;;;2.50;58.84;94365.34;2071721;69;20224;-74
2022/01/18 09:14:26;;;;;;;20.08;10.93;;;;;;;2.94;57.46;94358.66;2074883;69;20606;-72
2022/01/18 09:16:52;;;;;;;17.67;9.57;;;;;;;3.04;56.03;94365.38;2075166;69;20151;-72
2022/01/18 09:19:17;;;;;;;18.63;8.52;;;;;;;3.36;55.89;94361.25;2075077;69;20155;-73
2022/01/18 09:21:47;;;;;;;27.15;13.27;;;;;;;3.54;55.87;94363.31;2074918;69;20136;-73
2022/01/18 09:24:12;;;;;;;20.60;9.82;;;;;;;3.81;56.08;94369.81;2075023;69;20617;-71
2022/01/18 09:26:38;;;;;;;12.25;6.10;;;;;;;3.85;54.11;94375.84;2075052;69;20152;-73
2022/01/18 09:29:06;;;;;;;16.23;9.35;;;;;;;3.66;54.92;94375.78;2075107;69;20160;-73
2022/01/18 09:31:31;;;;;;;9.90;5.40;;;;;;;3.82;53.49;94380.41;2075232;69;20155;-72
2022/01/18 09:33:57;;;;;;;9.35;5.65;;;;;;;4.10;53.31;94370.94;2075026;69;20144;-72
2022/01/18 09:36:22;;;;;;;20.13;10.85;;;;;;;4.51;52.55;94373.34;2074915;69;20523;-72
2022/01/18 09:38:48;;;;;;;14.35;7.80;;;;;;;4.94;52.11;94374.44;2074949;69;20184;-76
2022/01/18 09:41:17;;;;;;;15.00;7.50;;;;;;;5.22;52.64;94374.72;2074954;69;20610;-71
2022/01/18 09:43:42;;;;;;;15.20;8.00;;;;;;;5.25;50.73;94379.19;2074895;69;20141;-74
2022/01/18 09:46:08;;;;;;;11.77;6.53;;;;;;;5.55;49.96;94383.75;2074986;69;20201;-72
2022/01/18 09:48:34;;;;;;;9.77;5.93;;;;;;;5.81;50.46;94380.91;2075229;69;20152;-72
2022/01/18 09:51:00;;;;;;;19.63;11.77;;;;;;;6.08;48.43;94378.84;2074839;69;20159;-74
2022/01/18 09:53:27;;;;;;;15.98;9.27;;;;;;;6.19;48.07;94371.53;2074888;69;20594;-74
2022/01/18 09:55:53;;;;;;;12.73;6.10;;;;;;;6.41;47.44;94373.78;2074840;69;20672;-73
2022/01/18 09:58:20;;;;;;;11.00;5.68;;;;;;;6.72;47.19;94360.84;2075053;69;20155;-73
2022/01/18 10:00:46;;;;;;;10.48;6.68;;;;;;;6.84;46.12;94364.16;2074878;69;20617;-72
2022/01/18 10:03:34;;;;;;;16.88;10.05;;;;;;;6.91;45.65;94362.69;2074930;69;20136;-71
2022/01/18 10:06:01;;;;;;;28.73;14.38;;;;;;;7.29;43.93;94355.38;2074830;69;20225;-71
2022/01/18 10:08:26;;;;;;;27.10;14.85;;;;;;;7.59;44.46;94351.25;2074865;69;20135;-71
2022/01/18 10:11:05;;;;;;;28.75;15.35;;;;;;;7.92;44.41;94351.59;2074960;69;20143;-71
2022/01/18 10:13:34;;;;;;;45.50;21.73;;;;;;;8.05;42.83;94349.41;2074938;69;20147;-72
2022/01/18 10:16:11;;;;;;;44.42;23.83;;;;;;;8.07;43.35;94344.00;2074987;69;20305;-72
2022/01/18 10:18:45;;;;;;;7.63;4.80;;;;;;;7.23;42.02;94349.13;2074937;69;20143;-73
2022/01/18 10:21:12;;;;;;;13.95;7.20;;;;;;;7.01;42.39;94335.72;2074748;69;20140;-74
2022/01/18 10:23:38;;;;;;;54.30;19.50;;;;;;;7.82;42.49;94340.88;2071699;69;20671;-73
2022/01/18 10:26:24;;;;;;;7.35;4.70;;;;;;;8.38;41.21;94325.25;2075076;69;20160;-71
2022/01/18 10:29:05;;;;;;;8.75;4.63;;;;;;;8.08;40.90;94333.53;2075390;69;20148;-72
2022/01/18 10:31:40;;;;;;;7.13;4.55;;;;;;;7.82;41.34;94331.72;2075417;69;20152;-72
2022/01/18 10:37:03;;;;;;;12.55;7.05;;;;;;;8.70;41.28;94323.97;2075295;69;20147;-71
2022/01/18 10:39:37;;;;;;;71.80;24.75;;;;;;;8.48;40.72;94319.09;2071959;69;20571;-70
2022/01/18 10:42:22;;;;;;;5.32;3.60;;;;;;;8.95;39.30;94315.00;2075303;69;20144;-71
2022/01/18 10:44:59;;;;;;;9.30;4.32;;;;;;;9.28;39.71;94311.03;2075355;69;20583;-71
2022/01/18 10:47:25;;;;;;;7.03;3.97;;;;;;;10.41;38.26;94314.06;2075316;69;20144;-73
2022/01/18 10:49:51;;;;;;;7.28;4.38;;;;;;;11.25;36.73;94312.72;2075310;69;20238;-72
2022/01/18 10:52:24;;;;;;;86.95;25.67;;;;;;;11.81;35.52;94312.34;2075553;69;20231;-75
2022/01/18 10:54:52;;;;;;;6.57;4.32;;;;;;;10.05;35.89;94308.03;2075323;69;20186;-72
2022/01/18 10:57:25;;;;;;;9.02;3.90;;;;;;;10.41;35.45;94310.50;2075248;69;20167;-73
2022/01/18 11:00:11;;;;;;;7.20;4.60;;;;;;;10.41;35.29;94305.63;2075338;69;20222;-73
2022/01/18 11:02:39;;;;;;;6.97;4.60;;;;;;;10.87;34.35;94296.13;2075256;69;20613;-73
2022/01/18 11:05:20;;;;;;;10.00;5.50;;;;;;;12.36;34.62;94302.69;2075278;69;20215;-72
2022/01/18 11:07:48;;;;;;;9.55;5.53;;;;;;;12.20;33.18;94296.50;2075288;69;20152;-74
2022/01/18 11:10:16;;;;;;;9.77;7.03;;;;;;;11.60;34.06;94296.59;2071833;69;20227;-73
2022/01/18 11:12:57;;;;;;;6.47;4.40;;;;;;;13.57;32.58;94290.84;2075200;69;20143;-72
2022/01/18 11:15:26;;;;;;;5.78;3.55;;;;;;;14.67;29.71;94295.31;2075222;69;20550;-72
2022/01/18 11:17:59;;;;;;;4.28;2.38;;;;;;;15.46;27.86;94292.28;2075202;69;20128;-71
2022/01/18 11:20:28;;;;;;;6.00;3.80;;;;;;;17.50;27.28;94294.00;2071954;69;20148;-73
2022/01/18 11:22:54;;;;;;;7.85;6.10;;;;;;;16.60;27.16;94290.53;2075252;69;20191;-72
2022/01/18 11:25:21;;;;;;;9.20;7.03;;;;;;;18.58;26.60;94290.25;2075220;69;20557;-72
2022/01/18 11:27:51;;;;;;;9.93;6.25;;;;;;;19.11;24.54;94293.22;2075176;69;20684;-71
2022/01/18 11:30:24;;;;;;;4.25;2.50;;;;;;;18.05;24.22;94287.97;2071875;69;20654;-72
2022/01/18 11:32:51;;;;;;;4.90;2.90;;;;;;;17.47;25.42;94283.84;2075303;69;20139;-72
2022/01/18 11:35:21;;;;;;;8.35;4.97;;;;;;;18.81;23.66;94289.44;2075098;69;20200;-72
2022/01/18 11:37:58;;;;;;;5.35;2.95;;;;;;;19.46;23.15;94295.81;2075173;69;20152;-72
2022/01/18 11:40:24;;;;;;;5.68;3.15;;;;;;;20.00;23.76;94297.94;2075349;69;20172;-73
2022/01/18 11:42:56;;;;;;;3.95;3.00;;;;;;;20.20;22.27;94294.63;2075145;69;20217;-73
2022/01/18 11:45:24;;;;;;;6.35;4.32;;;;;;;20.92;22.47;94291.03;2075190;69;20213;-72
2022/01/18 11:48:08;;;;;;;8.10;6.07;;;;;;;19.87;23.48;94286.53;2071749;69;20658;-73
2022/01/18 11:51:05;;;;;;;18.08;11.20;;;;;;;18.89;23.85;94276.34;2075075;69;20493;-72
2022/01/18 11:56:08;;;;;;;5.10;3.88;;;;;;;15.34;25.65;94273.69;2071784;69;20513;-72
2022/01/18 11:58:34;;;;;;;37.08;22.45;;;;;;;14.12;27.24;94268.69;2075273;69;20227;-73
2022/01/18 12:01:01;;;;;;;35.47;19.38;;;;;;;13.41;28.62;94267.75;2075247;69;20164;-72
2022/01/18 12:03:29;;;;;;;35.00;16.63;;;;;;;11.92;30.75;94263.91;2075148;69;20152;-71
2022/01/18 12:05:58;;;;;;;41.78;20.05;;;;;;;11.41;31.49;94268.22;2075057;69;20160;-72
2022/01/18 12:08:34;;;;;;;56.65;28.38;;;;;;;10.78;33.31;94260.88;2075143;69;20184;-72
2022/01/18 12:11:03;;;;;;;48.45;20.10;;;;;;;10.14;33.78;94256.75;2071732;69;20590;-71
2022/01/18 12:13:33;;;;;;;26.80;10.95;;;;;;;8.95;35.78;94250.41;2075102;69;20233;-71
2022/01/18 12:16:03;;;;;;;24.95;7.00;;;;;;;8.65;35.86;94249.81;2075226;69;20718;-75
2022/01/18 12:18:31;;;;;;;16.13;4.80;;;;;;;8.05;37.90;94253.28;2075358;69;20147;-71
2022/01/18 12:21:08;;;;;;;17.83;6.13;;;;;;;7.95;37.69;94247.47;2075009;69;20155;-72
2022/01/18 12:23:34;;;;;;;23.33;8.50;;;;;;;7.07;39.71;94252.31;2075108;69;20171;-72
2022/01/18 12:28:55;;;;;;;15.70;5.85;;;;;;;7.47;38.82;94255.53;2075289;69;20267;-75
2022/01/18 12:34:29;;;;;;;33.67;14.05;;;;;;;7.15;40.06;94247.53;2075130;69;20140;-72
2022/01/18 12:37:11;;;;;;;31.67;14.23;;;;;;;7.01;40.35;94238.47;2074981;69;20206;-71
2022/01/18 12:44:20;;;;;;;24.42;11.70;;;;;;;6.33;40.78;94233.88;2075220;69;20544;-71
2022/01/18 12:45:17;;;;;;;29.98;12.52;;;;;;;6.30;41.51;94239.78;2075041;69;20191;-73
2022/01/18 12:47:54;;;;;;;33.60;11.85;;;;;;;5.96;42.46;94235.03;2075058;69;20652;-71
2022/01/18 12:50:38;;;;;;;30.00;14.85;;;;;;;6.38;42.53;94220.28;2071330;69;20192;-73
2022/01/18 12:53:07;;;;;;;30.70;14.52;;;;;;;5.96;42.57;94223.84;2073838;69;20203;-73